Time;durP1;ratioP1;P1;durP2;ratioP2;P2;SDS_P1;SDS_P2;PMS_P1;PMS_P2;Temp;Humidity;BMP_temperature;BMP_pressure;BME280_temperature;BME280_humidity;BME280_pressure;Samples;Min_cycle;Max_cycle;Signal;HPM_P1;HPM_P2
2024/01/04 00:01:26;;;;;;;0.93;0.93;;;;;;;2.93;100.00;98501.38;4947084;29;20202;-42
2024/01/04 00:03:51;;;;;;;0.75;0.73;;;;;;;2.97;100.00;98505.59;4934511;29;20194;-41
2024/01/04 00:06:19;;;;;;;2.88;0.95;;;;;;;2.84;100.00;98506.16;4951448;29;20616;-41
2024/01/04 00:08:45;;;;;;;2.33;0.93;;;;;;;2.85;100.00;98501.72;4940965;29;20180;-41
2024/01/04 00:11:11;;;;;;;2.90;1.10;;;;;;;2.95;100.00;98504.81;4948556;29;20528;-42
2024/01/04 00:13:37;;;;;;;0.98;0.80;;;;;;;2.88;100.00;98504.22;4953184;29;20215;-42
2024/01/04 00:16:02;;;;;;;1.02;0.90;;;;;;;2.87;100.00;98515.75;4949431;29;20179;-43
2024/01/04 00:18:28;;;;;;;1.08;0.88;;;;;;;2.84;100.00;98522.03;4948831;29;20261;-42
2024/01/04 00:20:53;;;;;;;2.17;1.00;;;;;;;2.77;100.00;98535.56;4947489;29;20269;-41
2024/01/04 00:23:19;;;;;;;1.08;0.90;;;;;;;2.73;100.00;98529.53;4947581;29;20215;-42
2024/01/04 00:25:44;;;;;;;0.90;0.90;;;;;;;2.78;100.00;98526.72;4944158;28;20265;-41
2024/01/04 00:28:10;;;;;;;0.80;0.80;;;;;;;2.75;100.00;98534.78;4948295;29;20214;-40
2024/01/04 00:30:36;;;;;;;0.90;0.90;;;;;;;2.73;100.00;98533.97;4949271;29;20179;-42
2024/01/04 00:33:01;;;;;;;3.80;1.00;;;;;;;2.58;100.00;98524.91;4946767;29;20199;-42
2024/01/04 00:35:27;;;;;;;1.33;1.13;;;;;;;2.70;100.00;98539.41;4942076;29;20605;-42
2024/01/04 00:37:53;;;;;;;1.10;1.10;;;;;;;2.72;100.00;98530.47;4932947;29;20191;-40
2024/01/04 00:40:18;;;;;;;1.35;1.25;;;;;;;2.68;100.00;98542.97;4946580;29;20596;-41
2024/01/04 00:42:44;;;;;;;1.60;1.50;;;;;;;2.64;100.00;98530.78;4947260;29;20194;-42
2024/01/04 00:45:09;;;;;;;1.45;1.35;;;;;;;2.76;100.00;98549.72;4932903;29;20233;-42
2024/01/04 00:47:35;;;;;;;1.48;1.38;;;;;;;2.69;100.00;98533.28;4946998;29;20645;-41
2024/01/04 00:50:00;;;;;;;1.65;1.52;;;;;;;2.68;100.00;98537.69;4931127;29;21076;-42
2024/01/04 00:52:26;;;;;;;1.60;1.50;;;;;;;2.61;100.00;98552.09;4950531;29;20213;-41
2024/01/04 00:54:51;;;;;;;2.25;1.50;;;;;;;2.66;100.00;98552.75;4949254;29;20202;-40
2024/01/04 00:57:17;;;;;;;3.42;1.73;;;;;;;2.62;100.00;98553.81;4943539;29;20183;-43
2024/01/04 00:59:42;;;;;;;2.30;2.20;;;;;;;2.47;100.00;98550.03;4948479;29;20183;-42
2024/01/04 01:02:08;;;;;;;2.10;1.88;;;;;;;2.47;100.00;98555.31;4944394;29;20210;-41
2024/01/04 01:04:33;;;;;;;2.22;2.05;;;;;;;2.48;100.00;98551.75;4930120;29;20333;-40
2024/01/04 01:06:59;;;;;;;2.15;1.98;;;;;;;2.44;100.00;98550.16;4932882;29;20910;-42
2024/01/04 01:09:24;;;;;;;2.85;2.33;;;;;;;2.42;100.00;98557.28;4946236;29;20246;-41
2024/01/04 01:11:50;;;;;;;2.65;2.42;;;;;;;2.38;100.00;98555.69;4927747;29;20997;-42
2024/01/04 01:14:15;;;;;;;3.10;2.80;;;;;;;2.43;100.00;98558.16;4949605;29;20289;-42
2024/01/04 01:16:41;;;;;;;3.22;2.65;;;;;;;2.40;100.00;98563.56;4945625;29;20661;-40
2024/01/04 01:19:07;;;;;;;3.70;2.60;;;;;;;2.37;100.00;98559.25;4950382;29;20798;-42
2024/01/04 01:21:33;;;;;;;2.88;2.60;;;;;;;2.39;100.00;98570.63;4946537;29;20267;-41
2024/01/04 01:23:58;;;;;;;2.95;2.75;;;;;;;2.40;100.00;98567.06;4942436;29;20219;-44
2024/01/04 01:26:24;;;;;;;3.28;2.80;;;;;;;2.37;100.00;98572.47;4946197;29;20191;-42
2024/01/04 01:28:49;;;;;;;4.22;2.60;;;;;;;2.39;100.00;98575.91;4946976;29;20194;-41
2024/01/04 01:31:15;;;;;;;3.80;3.20;;;;;;;2.30;100.00;98576.31;4946718;29;20195;-43
2024/01/04 01:33:43;;;;;;;2.63;2.42;;;;;;;2.27;100.00;98592.25;4942864;29;20213;-41
2024/01/04 01:36:09;;;;;;;2.88;2.20;;;;;;;2.28;100.00;98609.00;4943125;29;21736;-43
2024/01/04 01:38:35;;;;;;;3.60;2.42;;;;;;;2.20;100.00;98585.50;4934328;29;20709;-39
2024/01/04 01:41:00;;;;;;;3.13;2.50;;;;;;;2.23;100.00;98603.88;4933374;29;20224;-41
2024/01/04 01:43:26;;;;;;;3.30;3.00;;;;;;;2.23;100.00;98606.50;4944986;29;20297;-42
2024/01/04 01:45:53;;;;;;;2.95;2.63;;;;;;;2.21;100.00;98605.75;4925529;29;20333;-44
2024/01/04 01:48:18;;;;;;;2.75;2.45;;;;;;;2.15;100.00;98611.25;4946174;29;20307;-42
2024/01/04 01:50:44;;;;;;;2.50;2.30;;;;;;;2.20;100.00;98611.94;4947893;29;20567;-43
2024/01/04 01:53:10;;;;;;;3.53;2.53;;;;;;;2.17;100.00;98609.44;4946613;29;20242;-40
2024/01/04 01:55:36;;;;;;;2.78;2.42;;;;;;;2.11;100.00;98623.72;4947525;29;20241;-41
2024/01/04 01:58:02;;;;;;;2.45;2.13;;;;;;;2.10;100.00;98616.72;4929388;29;20653;-42
2024/01/04 02:00:28;;;;;;;2.45;2.00;;;;;;;2.15;100.00;98619.19;4932632;29;20759;-43
2024/01/04 02:02:56;;;;;;;2.65;2.45;;;;;;;2.10;100.00;98619.38;4944554;29;20179;-42
2024/01/04 02:05:22;;;;;;;3.22;2.22;;;;;;;2.09;100.00;98633.47;4946602;29;20561;-42
2024/01/04 02:07:48;;;;;;;2.40;2.20;;;;;;;1.99;100.00;98638.28;4947484;29;20184;-40
2024/01/04 02:10:13;;;;;;;2.35;2.00;;;;;;;1.90;100.00;98638.59;4923425;29;20192;-40
2024/01/04 02:12:39;;;;;;;1.92;1.73;;;;;;;1.99;100.00;98635.63;4927197;29;20202;-43
2024/01/04 02:15:07;;;;;;;2.40;2.20;;;;;;;1.89;100.00;98642.19;4942152;29;20227;-42
2024/01/04 02:17:33;;;;;;;2.42;2.20;;;;;;;1.92;100.00;98660.53;4943968;29;20233;-42
2024/01/04 02:19:59;;;;;;;3.10;1.85;;;;;;;1.98;100.00;98655.03;4944273;29;20193;-41
2024/01/04 02:22:25;;;;;;;2.47;2.28;;;;;;;1.97;100.00;98665.66;4926571;29;20191;-40
2024/01/04 02:24:50;;;;;;;3.30;2.03;;;;;;;1.94;100.00;98666.63;4931127;29;20255;-41
2024/01/04 02:27:17;;;;;;;2.10;1.98;;;;;;;1.90;100.00;98666.78;4945324;29;20175;-41
2024/01/04 02:29:42;;;;;;;2.13;1.92;;;;;;;1.91;100.00;98664.09;4945656;29;20725;-41
2024/01/04 02:32:08;;;;;;;2.05;1.85;;;;;;;1.84;100.00;98662.63;4925265;29;20191;-41
2024/01/04 02:34:33;;;;;;;1.98;1.80;;;;;;;1.90;100.00;98666.78;4943181;29;20250;-42
2024/01/04 02:36:59;;;;;;;2.08;1.85;;;;;;;1.91;100.00;98668.53;4947784;29;20221;-42
2024/01/04 02:39:24;;;;;;;2.45;1.88;;;;;;;2.03;100.00;98663.66;4942883;29;20202;-42
2024/01/04 02:41:50;;;;;;;1.70;1.60;;;;;;;1.93;100.00;98670.19;4944235;29;20196;-41
2024/01/04 02:44:15;;;;;;;2.03;1.77;;;;;;;1.93;100.00;98672.84;4945476;29;20198;-44
2024/01/04 02:46:41;;;;;;;3.40;2.00;;;;;;;1.83;100.00;98674.09;4942562;29;20278;-44
2024/01/04 02:49:06;;;;;;;1.90;1.70;;;;;;;1.83;100.00;98679.38;4945189;29;20267;-42
2024/01/04 02:51:32;;;;;;;1.67;1.50;;;;;;;1.84;100.00;98687.25;4925885;29;20174;-42
2024/01/04 02:53:57;;;;;;;1.73;1.52;;;;;;;1.84;100.00;98681.97;4944713;29;20207;-40
2024/01/04 02:56:25;;;;;;;1.90;1.80;;;;;;;1.85;100.00;98681.03;4945505;29;20190;-42
2024/01/04 02:58:50;;;;;;;1.60;1.50;;;;;;;1.81;100.00;98678.56;4948876;29;20373;-42
2024/01/04 03:01:22;;;;;;;1.13;1.13;;;;;;;1.81;100.00;98687.34;4946493;29;20628;-42
2024/01/04 03:03:53;;;;;;;1.77;1.20;;;;;;;1.86;100.00;98684.56;4941850;29;20197;-41
2024/01/04 03:06:22;;;;;;;0.90;0.90;;;;;;;1.80;100.00;98685.63;4940581;29;20551;-42
2024/01/04 03:08:48;;;;;;;2.15;1.20;;;;;;;1.71;100.00;98698.31;4943549;29;20175;-42
2024/01/04 03:11:14;;;;;;;2.30;1.20;;;;;;;1.73;100.00;98699.09;4944123;29;20229;-40
2024/01/04 03:13:39;;;;;;;0.85;0.82;;;;;;;1.81;100.00;98697.91;4946615;29;20767;-42
2024/01/04 03:16:05;;;;;;;0.82;0.82;;;;;;;1.78;100.00;98708.59;4944879;29;20186;-40
2024/01/04 03:18:30;;;;;;;1.45;1.05;;;;;;;1.67;100.00;98708.13;4945693;29;20181;-42
2024/01/04 03:20:56;;;;;;;1.98;0.82;;;;;;;1.70;100.00;98715.06;4938049;29;20221;-44
2024/01/04 03:23:21;;;;;;;0.77;0.77;;;;;;;1.67;100.00;98716.03;4947341;29;20656;-42
2024/01/04 03:25:47;;;;;;;0.60;0.60;;;;;;;1.64;100.00;98717.03;4943699;29;20184;-40
2024/01/04 03:28:12;;;;;;;1.17;0.70;;;;;;;1.70;100.00;98722.97;4943090;29;20187;-44
2024/01/04 03:30:38;;;;;;;0.80;0.80;;;;;;;1.72;100.00;98723.78;4946722;29;20205;-42
2024/01/04 03:33:03;;;;;;;0.80;0.80;;;;;;;1.75;100.00;98727.19;4947115;29;20238;-40
2024/01/04 03:35:29;;;;;;;1.05;0.80;;;;;;;1.84;100.00;98723.34;4948365;29;20191;-42
2024/01/04 03:37:54;;;;;;;1.67;0.55;;;;;;;1.96;100.00;98732.59;4945886;28;20179;-41
2024/01/04 03:40:20;;;;;;;3.83;0.63;;;;;;;1.96;100.00;98732.59;4948528;29;20199;-41
2024/01/04 03:42:45;;;;;;;3.90;0.80;;;;;;;2.03;100.00;98742.88;4945672;29;20184;-42
2024/01/04 03:45:11;;;;;;;0.75;0.70;;;;;;;2.12;100.00;98743.44;4945585;29;20181;-40
2024/01/04 03:47:36;;;;;;;2.70;1.00;;;;;;;2.35;100.00;98750.50;4942308;29;20175;-42
2024/01/04 03:50:05;;;;;;;5.78;0.80;;;;;;;2.45;100.00;98765.09;4926902;29;20191;-42
2024/01/04 03:52:30;;;;;;;1.95;0.50;;;;;;;2.49;100.00;98761.41;4946932;29;20175;-42
2024/01/04 03:54:56;;;;;;;1.75;0.60;;;;;;;2.53;100.00;98767.44;4946902;29;20199;-43
2024/01/04 03:57:21;;;;;;;2.45;0.70;;;;;;;2.58;100.00;98770.75;4945584;29;20194;-44
2024/01/04 03:59:47;;;;;;;2.17;0.95;;;;;;;2.65;100.00;98774.91;4940899;29;20175;-42
2024/01/04 04:02:13;;;;;;;2.15;0.75;;;;;;;2.46;100.00;98774.75;4949133;29;20292;-42
2024/01/04 04:04:38;;;;;;;5.20;0.70;;;;;;;2.50;100.00;98788.72;4947323;29;20191;-44
2024/01/04 04:07:04;;;;;;;7.63;1.02;;;;;;;2.43;100.00;98796.00;4944107;29;20321;-42
2024/01/04 04:09:29;;;;;;;5.15;0.73;;;;;;;2.39;100.00;98803.19;4946293;29;20716;-43
2024/01/04 04:11:55;;;;;;;3.60;0.75;;;;;;;2.45;100.00;98808.25;4945374;29;20194;-43
2024/01/04 04:14:21;;;;;;;5.15;0.90;;;;;;;2.47;100.00;98810.81;4948846;29;20226;-41
2024/01/04 04:16:47;;;;;;;7.03;0.98;;;;;;;2.58;100.00;98806.00;4948117;29;20182;-40
2024/01/04 04:19:12;;;;;;;6.60;1.25;;;;;;;2.56;100.00;98820.16;4949001;29;20190;-44
2024/01/04 04:21:38;;;;;;;1.45;0.70;;;;;;;2.54;100.00;98824.69;4944889;29;20211;-42
2024/01/04 04:24:03;;;;;;;6.45;1.00;;;;;;;2.46;100.00;98838.16;4949919;29;20238;-41
2024/01/04 04:26:29;;;;;;;1.55;0.77;;;;;;;2.26;100.00;98858.25;4951090;29;20306;-44
2024/01/04 04:28:55;;;;;;;1.83;0.75;;;;;;;2.18;100.00;98859.47;4944718;29;20214;-43
2024/01/04 04:31:21;;;;;;;1.23;0.90;;;;;;;2.09;100.00;98860.66;4943700;29;20724;-42
2024/01/04 04:33:47;;;;;;;3.30;0.65;;;;;;;2.05;100.00;98881.00;4944882;29;20725;-42
2024/01/04 04:36:13;;;;;;;1.58;0.68;;;;;;;1.98;100.00;98881.28;4948024;29;20204;-43
2024/01/04 04:38:40;;;;;;;4.80;0.55;;;;;;;1.94;100.00;98882.31;4944588;29;20566;-42
2024/01/04 04:41:07;;;;;;;7.32;0.60;;;;;;;1.97;100.00;98898.06;4950995;29;20692;-42
2024/01/04 04:43:34;;;;;;;4.60;0.93;;;;;;;1.91;100.00;98896.47;4948776;29;20194;-41
2024/01/04 04:46:01;;;;;;;4.85;0.80;;;;;;;1.86;100.00;98916.91;4940137;29;20627;-44
2024/01/04 04:48:27;;;;;;;2.58;0.70;;;;;;;1.80;100.00;98930.31;4951817;29;20179;-44
2024/01/04 04:50:53;;;;;;;1.98;0.80;;;;;;;1.73;100.00;98939.31;4943941;29;20186;-42
2024/01/04 04:53:20;;;;;;;7.57;0.82;;;;;;;1.76;100.00;98931.31;4949081;29;20198;-41
2024/01/04 04:55:45;;;;;;;4.95;0.80;;;;;;;1.71;100.00;98962.31;4952050;29;20181;-42
2024/01/04 04:58:11;;;;;;;5.07;0.73;;;;;;;1.66;100.00;98957.16;4952881;29;20190;-42
2024/01/04 05:00:36;;;;;;;4.85;1.45;;;;;;;1.62;100.00;98958.19;4949110;29;20206;-41
2024/01/04 05:03:02;;;;;;;9.43;1.10;;;;;;;1.58;100.00;98975.88;4950638;29;20290;-44
2024/01/04 05:05:28;;;;;;;2.72;0.75;;;;;;;1.63;100.00;98984.50;4951386;29;20482;-44
2024/01/04 05:07:55;;;;;;;3.75;0.90;;;;;;;1.63;100.00;98999.50;4949175;29;20190;-42
2024/01/04 05:10:21;;;;;;;9.50;1.10;;;;;;;1.52;100.00;99015.66;4948456;29;20175;-45
2024/01/04 05:12:46;;;;;;;3.95;1.05;;;;;;;1.40;100.00;99018.66;4959912;23;20217;-42
2024/01/04 05:15:12;;;;;;;5.55;0.73;;;;;;;1.26;100.00;99031.41;4966238;28;20189;-42
2024/01/04 05:17:37;;;;;;;3.00;1.02;;;;;;;1.26;100.00;99047.25;4968348;28;20637;-43
2024/01/04 05:20:04;;;;;;;4.65;0.65;;;;;;;1.11;100.00;99048.53;4964130;28;20264;-42
2024/01/04 05:22:30;;;;;;;5.07;0.82;;;;;;;1.05;100.00;99068.06;4964743;28;20562;-41
2024/01/04 05:24:56;;;;;;;9.43;1.73;;;;;;;1.11;100.00;99073.13;4953832;28;20297;-45
2024/01/04 05:27:21;;;;;;;2.38;0.80;;;;;;;0.84;100.00;99084.44;4956357;28;20714;-43
2024/01/04 05:29:47;;;;;;;5.10;1.30;;;;;;;0.76;100.00;99087.28;4960751;28;20189;-45
2024/01/04 05:32:12;;;;;;;2.50;0.70;;;;;;;0.68;100.00;99120.88;4955618;28;20648;-45
2024/01/04 05:34:38;;;;;;;7.75;1.08;;;;;;;0.69;100.00;99128.75;4955183;28;20224;-43
2024/01/04 05:37:03;;;;;;;4.45;1.45;;;;;;;0.50;100.00;99130.97;4959663;28;20655;-45
2024/01/04 05:39:29;;;;;;;4.00;1.08;;;;;;;0.56;100.00;99161.59;4953825;28;22129;-45
2024/01/04 05:41:54;;;;;;;6.60;0.75;;;;;;;0.52;100.00;99166.06;4955565;28;20198;-43
2024/01/04 05:44:20;;;;;;;3.15;0.75;;;;;;;0.40;100.00;99150.56;4962924;28;20216;-39
2024/01/04 05:46:45;;;;;;;2.53;0.60;;;;;;;0.38;100.00;99178.69;4971773;28;20178;-39
2024/01/04 05:49:11;;;;;;;3.40;0.85;;;;;;;0.36;100.00;99202.44;4970347;28;20186;-40
2024/01/04 05:51:37;;;;;;;4.30;0.90;;;;;;;0.43;100.00;99192.63;4974917;28;20190;-41
2024/01/04 05:54:03;;;;;;;7.68;1.20;;;;;;;0.38;100.00;99211.19;4964315;28;20202;-43
2024/01/04 05:56:29;;;;;;;3.17;1.13;;;;;;;0.35;100.00;99213.91;4956840;28;20627;-44
2024/01/04 05:58:54;;;;;;;2.05;0.82;;;;;;;0.33;100.00;99238.53;4963311;28;20181;-43
2024/01/04 06:01:20;;;;;;;11.95;1.20;;;;;;;0.49;100.00;99241.69;4966186;28;20188;-43
2024/01/04 06:03:45;;;;;;;3.65;1.00;;;;;;;0.57;100.00;99260.84;4962675;28;20206;-43
2024/01/04 06:06:15;;;;;;;5.07;0.73;;;;;;;0.41;100.00;99269.06;4961683;28;20185;-42
2024/01/04 06:08:41;;;;;;;3.53;0.70;;;;;;;0.36;100.00;99284.09;4962727;28;20659;-41
2024/01/04 06:11:07;;;;;;;5.13;1.10;;;;;;;0.25;100.00;99296.63;4959237;28;20212;-42
2024/01/04 06:13:33;;;;;;;3.40;0.80;;;;;;;0.30;100.00;99321.09;4964994;28;20230;-40
2024/01/04 06:15:58;;;;;;;4.05;0.90;;;;;;;0.23;100.00;99327.41;4967126;28;20188;-41
2024/01/04 06:18:24;;;;;;;2.22;0.75;;;;;;;0.23;100.00;99326.56;4975546;28;20186;-43
2024/01/04 06:20:49;;;;;;;1.90;0.70;;;;;;;0.30;100.00;99355.34;4959481;28;20209;-40
2024/01/04 06:23:15;;;;;;;5.95;0.73;;;;;;;0.23;100.00;99347.63;4973619;28;20194;-42
2024/01/04 06:25:41;;;;;;;2.90;0.80;;;;;;;0.26;100.00;99371.25;4968628;28;20265;-43
2024/01/04 06:28:06;;;;;;;4.70;2.17;;;;;;;0.31;100.00;99401.03;4953295;28;20246;-41
2024/01/04 06:30:34;;;;;;;2.83;1.63;;;;;;;0.19;100.00;99378.41;4971016;28;20192;-39
2024/01/04 06:33:00;;;;;;;6.78;1.20;;;;;;;0.14;100.00;99411.88;4964735;28;20312;-41
2024/01/04 06:35:25;;;;;;;7.55;1.98;;;;;;;0.18;100.00;99401.25;4958670;28;20325;-42
2024/01/04 06:37:51;;;;;;;5.22;1.30;;;;;;;0.04;100.00;99423.47;4958070;28;20562;-41
2024/01/04 06:40:16;;;;;;;7.93;1.45;;;;;;;0.13;100.00;99418.03;4966179;28;20465;-41
2024/01/04 06:42:42;;;;;;;6.80;1.17;;;;;;;0.07;100.00;99426.06;4959840;28;20193;-42
2024/01/04 06:45:08;;;;;;;4.90;1.13;;;;;;;-0.09;100.00;99447.41;4968672;28;20174;-42
2024/01/04 06:47:33;;;;;;;1.70;1.10;;;;;;;-0.05;100.00;99466.63;4962413;28;20657;-42
2024/01/04 06:49:59;;;;;;;3.70;1.08;;;;;;;-0.15;100.00;99444.88;4962935;28;20181;-42
2024/01/04 06:52:24;;;;;;;1.83;1.27;;;;;;;-0.20;100.00;99478.25;4962609;28;20217;-43
2024/01/04 06:54:50;;;;;;;2.63;0.85;;;;;;;-0.29;100.00;99512.63;4964036;28;20281;-43
2024/01/04 06:57:16;;;;;;;6.35;1.10;;;;;;;-0.40;100.00;99502.25;4960981;28;20182;-43
2024/01/04 06:59:42;;;;;;;3.67;0.85;;;;;;;-0.35;100.00;99517.97;4960985;28;20535;-43
2024/01/04 07:02:08;;;;;;;6.53;1.55;;;;;;;-0.40;100.00;99530.34;4967077;28;20654;-41
2024/01/04 07:04:33;;;;;;;3.95;1.08;;;;;;;-0.38;100.00;99531.19;4959834;28;20237;-43
2024/01/04 07:06:59;;;;;;;3.13;1.30;;;;;;;-0.28;100.00;99535.44;4966241;28;20219;-44
2024/01/04 07:09:24;;;;;;;3.53;1.45;;;;;;;-0.31;100.00;99536.31;4962245;28;20194;-41
2024/01/04 07:11:51;;;;;;;5.55;1.30;;;;;;;-0.34;100.00;99548.69;4960546;28;20182;-42
2024/01/04 07:14:16;;;;;;;8.43;1.10;;;;;;;-0.37;100.00;99533.81;4961754;28;20209;-43
2024/01/04 07:16:44;;;;;;;0.88;0.82;;;;;;;-0.37;100.00;99561.88;4959227;28;20191;-41
2024/01/04 07:19:10;;;;;;;3.65;1.00;;;;;;;-0.48;100.00;99562.00;4963626;28;20715;-41
2024/01/04 07:21:35;;;;;;;9.68;1.33;;;;;;;-0.51;100.00;99591.00;4965104;28;20276;-43
2024/01/04 07:24:01;;;;;;;4.35;1.40;;;;;;;-0.53;100.00;99587.53;4959729;28;20209;-41
2024/01/04 07:26:26;;;;;;;2.78;1.35;;;;;;;-0.45;100.00;99583.03;4956042;28;20645;-42
2024/01/04 07:28:52;;;;;;;4.75;2.70;;;;;;;-0.49;100.00;99610.28;4960959;28;20594;-43
2024/01/04 07:31:17;;;;;;;8.05;1.30;;;;;;;-0.51;100.00;99615.56;4963459;23;20230;-42
2024/01/04 07:33:43;;;;;;;3.70;1.15;;;;;;;-0.62;100.00;99623.56;4954108;28;20271;-42
2024/01/04 07:36:08;;;;;;;3.90;0.95;;;;;;;-0.44;100.00;99622.50;4955245;28;20218;-44
2024/01/04 07:38:36;;;;;;;3.90;0.95;;;;;;;-0.63;100.00;99648.16;4954022;28;20193;-43
2024/01/04 07:41:03;;;;;;;3.10;0.98;;;;;;;-0.56;100.00;99656.84;4950274;28;20203;-42
2024/01/04 07:43:29;;;;;;;5.00;0.95;;;;;;;-0.58;100.00;99647.22;4955633;28;20206;-43
2024/01/04 07:45:54;;;;;;;4.25;1.02;;;;;;;-0.57;100.00;99668.22;4949812;28;20674;-41
2024/01/04 07:48:21;;;;;;;6.28;0.80;;;;;;;-0.64;100.00;99664.81;4953420;28;20254;-43
2024/01/04 07:50:46;;;;;;;2.65;0.75;;;;;;;-0.66;100.00;99682.41;4953425;28;20576;-42
2024/01/04 07:53:12;;;;;;;1.35;0.90;;;;;;;-0.73;100.00;99667.53;4934587;28;20242;-43
2024/01/04 07:55:38;;;;;;;5.07;0.90;;;;;;;-0.71;100.00;99672.78;4949188;28;20225;-43
2024/01/04 07:58:03;;;;;;;2.40;0.90;;;;;;;-0.83;100.00;99679.06;4956521;28;20237;-43
2024/01/04 08:00:29;;;;;;;1.65;0.95;;;;;;;-0.73;100.00;99706.13;4958179;28;20666;-43
2024/01/04 08:02:54;;;;;;;3.03;1.30;;;;;;;-0.75;100.00;99714.03;4960054;28;20190;-43
2024/01/04 08:05:20;;;;;;;5.72;1.10;;;;;;;-0.90;100.00;99704.53;4934848;28;20202;-40
2024/01/04 08:07:46;;;;;;;3.35;1.15;;;;;;;-0.82;100.00;99712.34;4956047;28;20278;-43
2024/01/04 08:10:12;;;;;;;3.35;0.77;;;;;;;-0.94;100.00;99723.88;4957863;28;20724;-43
2024/01/04 08:12:41;;;;;;;2.42;1.10;;;;;;;-0.88;100.00;99731.69;4957382;28;20182;-44
2024/01/04 08:15:11;;;;;;;2.83;1.00;;;;;;;-0.97;100.00;99721.25;4957965;28;20194;-44
2024/01/04 08:17:37;;;;;;;2.13;1.13;;;;;;;-0.95;100.00;99745.78;4957439;28;20552;-42
2024/01/04 08:20:03;;;;;;;2.80;0.80;;;;;;;-1.00;100.00;99738.84;4958915;28;20215;-43
2024/01/04 08:22:29;;;;;;;3.85;1.05;;;;;;;-0.94;100.00;99750.16;4938269;28;20190;-42
2024/01/04 08:24:54;;;;;;;5.78;1.00;;;;;;;-0.90;100.00;99767.63;4958264;28;20212;-43
2024/01/04 08:27:20;;;;;;;1.95;1.02;;;;;;;-1.03;100.00;99755.47;4953124;28;20703;-42
2024/01/04 08:29:49;;;;;;;2.30;0.80;;;;;;;-0.99;100.00;99770.34;4958064;28;20178;-43
2024/01/04 08:32:18;;;;;;;5.82;0.90;;;;;;;-0.88;100.00;99775.50;4958398;28;20717;-41
2024/01/04 08:34:44;;;;;;;1.92;0.90;;;;;;;-0.98;100.00;99760.72;4956013;28;20238;-45
2024/01/04 08:37:10;;;;;;;1.33;0.80;;;;;;;-0.90;100.00;99788.66;4941079;28;20206;-42
2024/01/04 08:39:36;;;;;;;1.75;1.10;;;;;;;-1.11;100.00;99796.75;4958969;28;20209;-41
2024/01/04 08:42:04;;;;;;;4.03;0.80;;;;;;;-1.11;100.00;99792.34;4945114;28;20216;-44
2024/01/04 08:44:29;;;;;;;4.57;1.00;;;;;;;-1.12;100.00;99802.88;4951458;28;20221;-43
2024/01/04 08:46:55;;;;;;;2.85;1.00;;;;;;;-1.25;100.00;99821.38;4955924;28;20193;-44
2024/01/04 08:49:21;;;;;;;3.72;1.20;;;;;;;-1.37;100.00;99836.34;4957241;28;20183;-42
2024/01/04 08:51:48;;;;;;;5.30;1.00;;;;;;;-1.35;100.00;99830.19;4958881;28;20261;-41
2024/01/04 08:54:13;;;;;;;3.60;1.13;;;;;;;-1.34;100.00;99833.69;4957915;28;20306;-45
2024/01/04 08:56:39;;;;;;;1.75;0.68;;;;;;;-1.35;100.00;99830.19;4931864;28;20195;-43
2024/01/04 08:59:05;;;;;;;8.13;1.30;;;;;;;-1.25;100.00;99842.41;4958127;28;20274;-42
2024/01/04 09:01:30;;;;;;;2.55;0.60;;;;;;;-1.29;100.00;99856.44;4939865;28;20323;-41
2024/01/04 09:03:57;;;;;;;4.65;0.90;;;;;;;-1.21;100.00;99847.63;4960350;28;20206;-41
2024/01/04 09:06:23;;;;;;;2.35;0.95;;;;;;;-1.21;100.00;99866.88;4964344;28;20260;-42
2024/01/04 09:08:49;;;;;;;2.97;0.82;;;;;;;-1.21;100.00;99860.75;4958364;28;20195;-45
2024/01/04 09:11:16;;;;;;;2.53;1.00;;;;;;;-1.18;100.00;99866.88;4948203;28;20186;-40
2024/01/04 09:13:45;;;;;;;4.82;1.10;;;;;;;-1.17;100.00;99886.16;4971907;28;20293;-42
2024/01/04 09:16:11;;;;;;;3.63;1.02;;;;;;;-1.19;100.00;99880.03;4957188;28;20225;-42
2024/01/04 09:18:36;;;;;;;3.63;1.90;;;;;;;-1.23;100.00;99891.44;4957684;28;20253;-43
2024/01/04 09:21:02;;;;;;;2.72;1.20;;;;;;;-1.29;100.00;99910.72;4966073;28;20765;-44
2024/01/04 09:23:28;;;;;;;1.35;1.20;;;;;;;-1.30;100.00;99917.72;4939639;28;20217;-43
2024/01/04 09:25:54;;;;;;;2.25;0.70;;;;;;;-1.23;100.00;99917.72;4961391;28;20560;-42
2024/01/04 09:28:23;;;;;;;2.88;1.10;;;;;;;-1.32;100.00;99922.13;4946453;28;20182;-42
2024/01/04 09:30:49;;;;;;;5.47;1.80;;;;;;;-1.31;100.00;99923.00;4940457;28;20202;-43
2024/01/04 09:33:17;;;;;;;4.22;1.70;;;;;;;-1.29;100.00;99926.47;4955559;28;20209;-42
2024/01/04 09:35:43;;;;;;;4.78;2.20;;;;;;;-1.27;100.00;99929.97;4940901;28;20186;-42
2024/01/04 09:38:09;;;;;;;1.48;1.10;;;;;;;-1.25;100.00;99942.25;4933530;28;20213;-42
2024/01/04 09:40:34;;;;;;;4.10;1.33;;;;;;;-1.32;100.00;99945.75;4958771;28;20354;-39
2024/01/04 09:43:00;;;;;;;3.55;1.30;;;;;;;-1.24;100.00;99958.88;4962291;28;20265;-43
2024/01/04 09:45:29;;;;;;;7.03;1.95;;;;;;;-1.33;100.00;99964.19;4942119;28;20367;-45
2024/01/04 09:47:59;;;;;;;3.85;1.73;;;;;;;-1.31;100.00;99962.44;4945741;28;20265;-41
2024/01/04 09:50:27;;;;;;;6.88;1.90;;;;;;;-1.38;100.00;99960.69;4944017;28;20284;-39
2024/01/04 09:52:55;;;;;;;3.05;1.60;;;;;;;-1.35;100.00;99979.94;4925261;28;20197;-46
2024/01/04 09:55:22;;;;;;;4.20;1.98;;;;;;;-1.40;100.00;99981.72;4939741;28;20187;-42
2024/01/04 09:57:48;;;;;;;2.53;1.85;;;;;;;-1.43;100.00;99981.72;4955763;28;20190;-43
2024/01/04 10:00:14;;;;;;;3.53;2.03;;;;;;;-1.33;100.00;99987.84;4959917;28;20253;-43
2024/01/04 10:02:42;;;;;;;3.38;1.42;;;;;;;-1.41;100.00;99994.88;4960092;28;20559;-41
2024/01/04 10:05:17;;;;;;;3.85;1.75;;;;;;;-1.31;100.00;99997.47;4951821;28;20191;-45
2024/01/04 10:07:53;;;;;;;2.35;1.58;;;;;;;-1.42;100.00;99996.63;4961010;28;20293;-41
2024/01/04 10:10:20;;;;;;;5.97;1.67;;;;;;;-1.39;100.00;99998.34;4950388;28;20224;-41
2024/01/04 10:12:48;;;;;;;3.20;2.13;;;;;;;-1.38;100.00;100011.47;4939018;28;20183;-40
2024/01/04 10:15:15;;;;;;;4.97;1.52;;;;;;;-1.33;100.00;100006.22;4961924;28;20212;-43
2024/01/04 10:17:44;;;;;;;1.27;1.10;;;;;;;-1.34;100.00;100020.22;4955033;28;20195;-41
2024/01/04 10:20:10;;;;;;;4.45;1.70;;;;;;;-1.44;100.00;100032.53;4956237;28;20504;-41
2024/01/04 10:22:36;;;;;;;5.93;2.55;;;;;;;-1.43;100.00;100034.25;4940421;28;20198;-40
2024/01/04 10:25:08;;;;;;;3.00;2.17;;;;;;;-1.51;100.00;100031.66;4957323;28;20213;-44
2024/01/04 10:27:34;;;;;;;4.53;2.28;;;;;;;-1.36;100.00;100053.50;4957277;28;20215;-41
2024/01/04 10:30:04;;;;;;;5.00;1.58;;;;;;;-1.37;100.00;100043.91;4956175;28;20713;-41
2024/01/04 10:32:30;;;;;;;4.82;1.60;;;;;;;-1.42;100.00;100064.94;4961338;28;20676;-42
2024/01/04 10:35:03;;;;;;;2.45;1.45;;;;;;;-1.32;100.00;100050.00;4961839;28;20213;-42
2024/01/04 10:37:29;;;;;;;2.20;1.45;;;;;;;-1.29;100.00;100055.25;4953298;28;20193;-40
2024/01/04 10:39:57;;;;;;;3.78;1.42;;;;;;;-1.28;100.00;100057.88;4952936;28;20627;-41
2024/01/04 10:42:22;;;;;;;2.38;1.63;;;;;;;-1.33;100.00;100062.28;4955167;28;20268;-41
2024/01/04 10:44:54;;;;;;;2.97;1.40;;;;;;;-1.36;100.00;100064.88;4953935;28;20194;-41
2024/01/04 10:47:20;;;;;;;1.42;1.38;;;;;;;-1.40;100.00;100063.19;4957056;28;20178;-43
2024/01/04 10:49:48;;;;;;;2.45;1.30;;;;;;;-1.39;100.00;100064.03;4948667;28;20281;-42
2024/01/04 10:52:15;;;;;;;3.13;1.20;;;;;;;-1.32;100.00;100071.91;4960652;28;20205;-40
2024/01/04 10:54:42;;;;;;;3.60;1.33;;;;;;;-1.31;100.00;100076.28;4952150;28;20242;-41
2024/01/04 10:57:08;;;;;;;4.57;1.45;;;;;;;-1.27;100.00;100091.19;4949841;28;20197;-43
2024/01/04 10:59:34;;;;;;;2.03;1.23;;;;;;;-1.26;100.00;100082.41;4956381;28;20198;-42
2024/01/04 11:02:01;;;;;;;2.15;1.60;;;;;;;-1.25;100.00;100086.78;4951232;28;20840;-43
2024/01/04 11:04:28;;;;;;;2.28;1.33;;;;;;;-1.35;100.00;100103.44;4953787;28;20216;-45
2024/01/04 11:06:53;;;;;;;3.50;1.35;;;;;;;-1.23;100.00;100099.91;4957907;28;20182;-43
2024/01/04 11:09:20;;;;;;;3.05;1.35;;;;;;;-1.22;100.00;100092.88;4952091;28;20287;-42
2024/01/04 11:11:49;;;;;;;3.15;1.73;;;;;;;-1.27;100.00;100101.69;4958596;28;20919;-41
2024/01/04 11:14:15;;;;;;;4.82;1.50;;;;;;;-1.30;100.00;100108.69;4973591;23;20222;-40
2024/01/04 11:16:56;;;;;;;1.48;1.38;;;;;;;-1.34;100.00;100120.94;4966679;28;20248;-41
2024/01/04 11:19:51;;;;;;;3.55;1.40;;;;;;;-1.35;100.00;100116.59;4965325;28;20588;-40
2024/01/04 11:22:58;;;;;;;3.35;1.15;;;;;;;-1.34;100.00;100125.34;4962108;28;20888;-42
2024/01/04 11:26:02;;;;;;;1.55;1.10;;;;;;;-1.25;100.00;100110.44;4947955;29;20286;-43